createdAt,value
2018-12-13T00:00:16.918Z,9.80
2018-12-13T00:02:43.275Z,9.07
2018-12-13T00:05:09.876Z,8.80
2018-12-13T00:07:36.467Z,8.77
2018-12-13T00:10:03.264Z,8.60
2018-12-13T00:12:29.859Z,8.73
2018-12-13T00:14:56.470Z,8.73
2018-12-13T00:17:22.995Z,8.90
2018-12-13T00:19:49.620Z,8.77
2018-12-13T00:22:16.092Z,9.43
2018-12-13T00:24:42.498Z,8.87
2018-12-13T00:27:08.971Z,9.37
2018-12-13T00:29:38.079Z,9.83
2018-12-13T00:32:04.686Z,9.57
2018-12-13T00:34:31.265Z,9.17
2018-12-13T00:36:57.986Z,9.73
2018-12-13T00:39:24.491Z,9.63
2018-12-13T00:41:51.223Z,10.93
2018-12-13T00:44:17.649Z,9.33
2018-12-13T00:46:44.243Z,8.70
2018-12-13T00:49:10.943Z,8.40
2018-12-13T00:51:37.559Z,6.63
2018-12-13T00:54:04.140Z,7.27
2018-12-13T00:56:30.630Z,6.90
2018-12-13T00:58:57.098Z,7.50
2018-12-13T01:01:23.698Z,7.37
2018-12-13T01:03:50.178Z,7.33
2018-12-13T01:06:16.808Z,8.10
2018-12-13T01:08:43.394Z,7.80
2018-12-13T01:11:09.872Z,7.03
2018-12-13T01:13:36.460Z,7.97
2018-12-13T01:16:03.055Z,8.37
2018-12-13T01:18:29.630Z,7.40
2018-12-13T01:20:56.003Z,7.13
2018-12-13T01:23:22.602Z,7.33
2018-12-13T01:25:49.066Z,7.63
2018-12-13T01:28:15.549Z,7.63
2018-12-13T01:30:42.021Z,7.23
2018-12-13T01:33:08.525Z,7.50
2018-12-13T01:35:35.219Z,7.90
2018-12-13T01:38:01.682Z,7.97
2018-12-13T01:40:28.032Z,7.70
2018-12-13T01:42:54.395Z,7.07
2018-12-13T01:45:20.975Z,7.07
2018-12-13T01:47:47.459Z,8.73
2018-12-13T01:50:13.920Z,7.33
2018-12-13T01:52:40.532Z,7.70
2018-12-13T01:55:07.117Z,8.30
2018-12-13T01:57:33.721Z,7.80
2018-12-13T02:00:00.261Z,7.87
2018-12-13T02:02:26.754Z,7.80
2018-12-13T02:04:53.459Z,7.93
2018-12-13T02:07:19.945Z,8.17
2018-12-13T02:09:46.518Z,7.47
2018-12-13T02:12:13.116Z,8.60
2018-12-13T02:14:39.718Z,8.30
2018-12-13T02:17:06.430Z,7.37
2018-12-13T02:19:33.029Z,8.27
2018-12-13T02:21:59.623Z,8.70
2018-12-13T02:24:26.330Z,8.17
2018-12-13T02:26:52.899Z,8.83
2018-12-13T02:29:19.435Z,8.47
2018-12-13T02:31:46.028Z,8.20
2018-12-13T02:34:12.636Z,8.37
2018-12-13T02:36:38.987Z,8.70
2018-12-13T02:39:06.010Z,8.87
2018-12-13T02:41:32.514Z,9.23
2018-12-13T02:43:59.003Z,10.07
2018-12-13T02:46:25.463Z,8.63
2018-12-13T02:48:53.987Z,9.40
2018-12-13T02:51:20.615Z,8.80
2018-12-13T02:53:47.230Z,9.50
2018-12-13T02:56:13.720Z,9.50
2018-12-13T02:58:40.224Z,8.80
2018-12-13T03:01:06.803Z,10.13
2018-12-13T03:03:33.286Z,10.20
2018-12-13T03:05:59.789Z,9.07
2018-12-13T03:08:26.149Z,9.80
2018-12-13T03:10:52.854Z,9.57
2018-12-13T03:13:19.453Z,8.83
2018-12-13T03:15:46.155Z,9.30
2018-12-13T03:18:12.743Z,9.67
2018-12-13T03:20:39.099Z,9.90
2018-12-13T03:23:05.596Z,9.90
2018-12-13T03:25:31.958Z,9.63
2018-12-13T03:27:58.563Z,9.50
2018-12-13T03:30:24.937Z,9.27
2018-12-13T03:32:51.543Z,9.80
2018-12-13T03:35:18.142Z,9.90
2018-12-13T03:37:44.631Z,10.00
2018-12-13T03:40:11.471Z,10.13
2018-12-13T03:42:38.238Z,10.20
2018-12-13T03:45:04.879Z,8.97
2018-12-13T03:47:31.471Z,9.43
2018-12-13T03:49:58.089Z,9.77
2018-12-13T03:52:24.434Z,9.93
2018-12-13T03:54:51.053Z,10.03
2018-12-13T03:57:17.535Z,10.10
2018-12-13T03:59:43.868Z,9.57
2018-12-13T04:02:10.462Z,10.07
2018-12-13T04:04:36.942Z,10.63
2018-12-13T04:07:03.439Z,10.27
2018-12-13T04:09:30.042Z,9.77
2018-12-13T04:11:56.544Z,10.53
2018-12-13T04:14:23.034Z,10.50
2018-12-13T04:16:49.545Z,9.57
2018-12-13T04:19:16.263Z,11.07
2018-12-13T04:21:42.727Z,10.33
2018-12-13T04:24:09.220Z,10.97
2018-12-13T04:26:35.606Z,10.17
2018-12-13T04:29:02.174Z,11.13
2018-12-13T04:31:28.798Z,10.53
2018-12-13T04:33:55.296Z,10.67
2018-12-13T04:36:21.791Z,10.77
2018-12-13T04:38:48.139Z,10.87
2018-12-13T04:41:14.747Z,11.70
2018-12-13T04:43:41.337Z,11.23
2018-12-13T04:46:07.826Z,12.47
2018-12-13T04:48:34.289Z,12.23
2018-12-13T04:51:00.899Z,10.83
2018-12-13T04:53:27.396Z,11.50
2018-12-13T04:55:53.959Z,11.20
2018-12-13T04:58:20.322Z,12.17
2018-12-13T05:00:46.906Z,11.93
2018-12-13T05:03:13.641Z,10.50
2018-12-13T05:05:40.223Z,10.73
2018-12-13T05:08:06.793Z,11.37
2018-12-13T05:10:35.128Z,10.33
2018-12-13T05:13:01.578Z,11.07
2018-12-13T05:15:28.167Z,11.27
2018-12-13T05:17:54.663Z,11.60
2018-12-13T05:20:21.238Z,11.47
2018-12-13T05:22:47.710Z,11.50
2018-12-13T05:25:14.223Z,10.73
2018-12-13T05:27:40.830Z,11.10
2018-12-13T05:30:07.485Z,12.47
2018-12-13T05:32:34.058Z,12.47
2018-12-13T05:35:00.416Z,11.93
2018-12-13T05:37:27.029Z,11.90
2018-12-13T05:39:53.634Z,12.23
2018-12-13T05:42:19.999Z,11.33
2018-12-13T05:44:46.582Z,12.20
2018-12-13T05:47:13.282Z,11.07
2018-12-13T05:49:39.775Z,11.67
2018-12-13T05:52:06.250Z,12.10
2018-12-13T05:54:32.837Z,11.47
2018-12-13T05:56:59.422Z,11.80
2018-12-13T05:59:26.011Z,11.27
2018-12-13T06:01:52.504Z,11.47
2018-12-13T06:04:19.120Z,11.67
2018-12-13T06:06:45.687Z,12.57
2018-12-13T06:09:12.202Z,12.77
2018-12-13T06:11:38.679Z,13.70
2018-12-13T06:14:05.271Z,12.63
2018-12-13T06:16:31.855Z,12.80
2018-12-13T06:18:58.372Z,13.20
2018-12-13T06:21:24.962Z,12.63
2018-12-13T06:23:51.662Z,13.87
2018-12-13T06:26:18.253Z,12.90
2018-12-13T06:28:44.771Z,13.50
2018-12-13T06:31:11.234Z,13.80
2018-12-13T06:33:37.823Z,12.33
2018-12-13T06:36:04.460Z,13.17
2018-12-13T06:38:30.917Z,14.23
2018-12-13T06:40:57.519Z,13.57
2018-12-13T06:43:23.999Z,14.30
2018-12-13T06:45:50.598Z,13.80
2018-12-13T06:48:17.300Z,15.17
2018-12-13T06:50:43.908Z,13.93
2018-12-13T06:53:10.395Z,13.27
2018-12-13T06:55:37.120Z,14.47
2018-12-13T06:58:03.595Z,13.67
2018-12-13T07:00:29.958Z,12.83
2018-12-13T07:02:56.571Z,14.27
2018-12-13T07:05:23.179Z,14.73
2018-12-13T07:07:49.773Z,13.27
2018-12-13T07:10:16.326Z,12.97
2018-12-13T07:12:42.953Z,13.57
2018-12-13T07:15:09.550Z,13.40
2018-12-13T07:17:35.912Z,14.10
2018-12-13T07:20:02.842Z,14.17
2018-12-13T07:22:29.370Z,12.83
2018-12-13T07:24:55.902Z,14.00
2018-12-13T07:27:22.662Z,15.30
2018-12-13T07:29:49.130Z,15.80
2018-12-13T07:32:15.863Z,15.23
2018-12-13T07:34:42.227Z,14.17
2018-12-13T07:37:08.810Z,13.90
2018-12-13T07:39:35.390Z,14.57
2018-12-13T07:42:02.011Z,15.07
2018-12-13T07:44:28.595Z,14.23
2018-12-13T07:46:54.958Z,14.20
2018-12-13T07:49:21.427Z,13.20
2018-12-13T07:51:48.147Z,13.20
2018-12-13T07:54:14.631Z,12.93
2018-12-13T07:56:40.982Z,13.37
2018-12-13T07:59:07.475Z,14.30
2018-12-13T08:01:34.085Z,14.37
2018-12-13T08:04:00.470Z,14.17
2018-12-13T08:06:27.065Z,13.57
2018-12-13T08:08:53.774Z,14.17
2018-12-13T08:11:20.491Z,14.47
2018-12-13T08:13:47.245Z,15.07
2018-12-13T08:16:13.894Z,14.83
2018-12-13T08:18:40.490Z,14.43
2018-12-13T08:21:06.947Z,15.23
2018-12-13T08:23:33.650Z,14.03
2018-12-13T08:26:00.362Z,14.20
2018-12-13T08:28:26.736Z,13.50
2018-12-13T08:30:53.317Z,14.47
2018-12-13T08:33:19.826Z,13.73
2018-12-13T08:35:46.522Z,14.75
2018-12-13T08:38:13.234Z,14.37
2018-12-13T08:40:39.722Z,13.93
2018-12-13T08:43:06.324Z,14.47
2018-12-13T08:45:32.794Z,15.03
2018-12-13T08:47:59.514Z,14.50
2018-12-13T08:50:26.100Z,16.03
2018-12-13T08:52:52.602Z,15.47
2018-12-13T08:55:19.078Z,14.70
2018-12-13T08:57:45.566Z,16.47
2018-12-13T09:00:12.142Z,15.30
2018-12-13T09:02:38.643Z,16.13
2018-12-13T09:05:05.208Z,15.83
2018-12-13T09:07:31.733Z,15.17
2018-12-13T09:09:58.223Z,15.20
2018-12-13T09:12:24.692Z,13.97
2018-12-13T09:14:51.289Z,14.70
2018-12-13T09:17:17.772Z,13.53
2018-12-13T09:19:44.266Z,13.27
2018-12-13T09:22:10.846Z,13.77
2018-12-13T09:24:37.315Z,14.10
2018-12-13T09:27:03.902Z,13.50
2018-12-13T09:29:30.611Z,11.97
2018-12-13T09:31:57.191Z,12.87
2018-12-13T09:34:23.655Z,13.80
2018-12-13T09:36:50.198Z,12.83
2018-12-13T09:39:16.821Z,12.43
2018-12-13T09:41:43.431Z,13.67
2018-12-13T09:44:11.954Z,12.90
2018-12-13T09:46:38.650Z,13.83
2018-12-13T09:49:05.227Z,12.17
2018-12-13T09:51:32.237Z,11.50
2018-12-13T09:53:58.806Z,11.20
2018-12-13T09:56:25.411Z,11.87
2018-12-13T09:58:51.990Z,12.20
2018-12-13T10:01:18.475Z,12.07
2018-12-13T10:03:44.938Z,11.00
2018-12-13T10:06:11.533Z,11.40
2018-12-13T10:08:37.883Z,11.23
2018-12-13T10:11:04.371Z,11.43
2018-12-13T10:13:30.946Z,11.70
2018-12-13T10:15:57.535Z,11.00
2018-12-13T10:18:24.001Z,11.73
2018-12-13T10:20:50.601Z,10.77
2018-12-13T10:23:17.180Z,11.30
2018-12-13T10:25:43.676Z,10.30
2018-12-13T10:28:10.495Z,11.00
2018-12-13T10:30:36.904Z,11.93
2018-12-13T10:33:03.543Z,10.17
2018-12-13T10:35:30.175Z,10.10
2018-12-13T10:37:56.638Z,9.37
2018-12-13T10:40:23.112Z,10.63
2018-12-13T10:42:49.587Z,10.73
2018-12-13T10:45:16.099Z,11.00
2018-12-13T10:47:42.579Z,10.33
2018-12-13T10:50:08.934Z,9.70
2018-12-13T10:52:35.301Z,11.03
2018-12-13T10:55:02.098Z,9.53
2018-12-13T10:57:28.699Z,9.73
2018-12-13T10:59:55.278Z,10.17
2018-12-13T11:02:23.787Z,8.83
2018-12-13T11:04:50.489Z,8.07
2018-12-13T11:07:17.086Z,8.80
2018-12-13T11:09:43.666Z,9.00
2018-12-13T11:12:10.268Z,9.50
2018-12-13T11:14:36.751Z,8.87
2018-12-13T11:17:03.448Z,8.57
2018-12-13T11:19:29.924Z,8.60
2018-12-13T11:21:56.514Z,9.27
2018-12-13T11:24:22.868Z,8.50
2018-12-13T11:26:49.467Z,8.63
2018-12-13T11:29:17.949Z,8.20
2018-12-13T11:31:44.546Z,8.63
2018-12-13T11:34:11.140Z,9.20
2018-12-13T11:36:37.593Z,9.03
2018-12-13T11:39:05.900Z,8.17
2018-12-13T11:41:32.702Z,8.60
2018-12-13T11:43:59.290Z,9.30
2018-12-13T11:46:25.651Z,9.33
2018-12-13T11:48:52.243Z,9.40
2018-12-13T11:51:18.871Z,9.53
2018-12-13T11:53:45.555Z,8.93
2018-12-13T11:56:12.050Z,9.57
2018-12-13T11:58:38.513Z,9.37
2018-12-13T12:01:05.003Z,9.80
2018-12-13T12:03:31.511Z,9.23
2018-12-13T12:05:58.584Z,9.83
2018-12-13T12:08:25.086Z,9.53
2018-12-13T12:10:51.440Z,10.60
2018-12-13T12:13:17.922Z,10.30
2018-12-13T12:15:44.890Z,10.10
2018-12-13T12:18:11.378Z,10.50
2018-12-13T12:20:37.899Z,10.90
2018-12-13T12:23:04.402Z,10.03
2018-12-13T12:25:30.889Z,10.30
2018-12-13T12:27:57.382Z,10.00
2018-12-13T12:30:24.075Z,11.03
2018-12-13T12:32:50.671Z,9.20
2018-12-13T12:35:17.022Z,9.87
2018-12-13T12:37:43.713Z,10.67
2018-12-13T12:40:10.291Z,10.67
2018-12-13T12:42:36.904Z,10.00
2018-12-13T12:45:03.994Z,9.53
2018-12-13T12:47:30.570Z,9.43
2018-12-13T12:49:57.079Z,9.73
2018-12-13T12:52:23.530Z,9.57
2018-12-13T12:54:50.045Z,10.30
2018-12-13T12:57:16.759Z,10.30
2018-12-13T12:59:43.253Z,10.43
2018-12-13T13:02:09.947Z,10.13
2018-12-13T13:04:36.376Z,11.00
2018-12-13T13:07:02.880Z,10.27
2018-12-13T13:09:29.460Z,9.97
2018-12-13T13:11:55.935Z,10.20
2018-12-13T13:14:22.418Z,11.10
2018-12-13T13:16:48.886Z,9.60
2018-12-13T13:19:15.381Z,10.30
2018-12-13T13:21:41.863Z,10.87
2018-12-13T13:24:08.536Z,10.27
2018-12-13T13:26:35.010Z,10.33
2018-12-13T13:29:01.486Z,9.70
2018-12-13T13:31:28.082Z,9.93
2018-12-13T13:33:54.571Z,10.50
2018-12-13T13:36:21.067Z,9.77
2018-12-13T13:38:47.668Z,9.53
2018-12-13T13:41:14.199Z,9.90
2018-12-13T13:43:40.806Z,10.00
2018-12-13T13:46:07.294Z,9.97
2018-12-13T13:48:33.662Z,10.97
2018-12-13T13:51:00.415Z,10.07
2018-12-13T13:53:26.791Z,10.30
2018-12-13T13:55:53.382Z,10.83
2018-12-13T13:58:19.862Z,10.20
2018-12-13T14:00:46.479Z,9.77
2018-12-13T14:03:13.050Z,9.80
2018-12-13T14:05:39.668Z,10.60
2018-12-13T14:08:06.203Z,11.43
2018-12-13T14:10:32.807Z,11.03
2018-12-13T14:12:59.292Z,11.77
2018-12-13T14:15:25.932Z,10.20
2018-12-13T14:17:52.406Z,10.53
2018-12-13T14:20:18.903Z,9.83
2018-12-13T14:22:45.809Z,10.67
2018-12-13T14:25:12.404Z,10.20
2018-12-13T14:27:39.142Z,9.63
2018-12-13T14:30:05.736Z,9.53
2018-12-13T14:32:32.230Z,9.33
2018-12-13T14:34:58.744Z,10.77
2018-12-13T14:37:25.321Z,10.30
2018-12-13T14:39:51.581Z,9.10
2018-12-13T14:42:18.175Z,10.80
2018-12-13T14:44:44.554Z,9.23
2018-12-13T14:47:11.082Z,9.37
2018-12-13T14:49:37.571Z,10.00
2018-12-13T14:52:04.290Z,11.07
2018-12-13T14:54:30.763Z,11.53
2018-12-13T14:56:57.267Z,10.03
2018-12-13T14:59:23.760Z,11.50
2018-12-13T15:01:50.246Z,11.13
2018-12-13T15:04:16.747Z,12.00
2018-12-13T15:06:43.332Z,10.87
2018-12-13T15:09:10.024Z,11.03
2018-12-13T15:11:36.618Z,12.23
2018-12-13T15:14:03.330Z,12.47
2018-12-13T15:16:29.810Z,11.27
2018-12-13T15:18:56.403Z,11.93
2018-12-13T15:21:22.894Z,11.10
2018-12-13T15:23:49.490Z,11.20
2018-12-13T15:26:15.968Z,11.17
2018-12-13T15:28:42.478Z,11.90
2018-12-13T15:31:08.962Z,11.23
2018-12-13T15:33:35.467Z,13.53
2018-12-13T15:36:02.060Z,11.10
2018-12-13T15:38:31.313Z,10.67
2018-12-13T15:40:57.794Z,10.90
2018-12-13T15:43:24.298Z,10.73
2018-12-13T15:45:50.791Z,10.67
2018-12-13T15:48:17.274Z,10.60
2018-12-13T15:50:43.638Z,10.97
2018-12-13T15:53:10.160Z,10.90
2018-12-13T15:55:36.646Z,10.60
2018-12-13T15:58:03.239Z,9.60
2018-12-13T16:00:29.595Z,12.97
2018-12-13T16:02:56.223Z,10.33
2018-12-13T16:05:22.818Z,11.40
2018-12-13T16:07:49.480Z,12.50
2018-12-13T16:10:16.273Z,17.00
2018-12-13T16:12:42.770Z,11.33
2018-12-13T16:15:09.291Z,11.20
2018-12-13T16:17:35.688Z,10.97
2018-12-13T16:20:02.391Z,10.50
2018-12-13T16:22:28.867Z,11.30
2018-12-13T16:24:55.451Z,10.43
2018-12-13T16:27:21.935Z,10.17
2018-12-13T16:29:48.766Z,11.17
2018-12-13T16:32:15.252Z,12.00
2018-12-13T16:34:41.865Z,12.03
2018-12-13T16:37:08.461Z,11.33
2018-12-13T16:39:34.964Z,12.60
2018-12-13T16:42:01.570Z,12.57
2018-12-13T16:44:28.086Z,11.30
2018-12-13T16:46:54.799Z,12.03
2018-12-13T16:49:21.270Z,13.90
2018-12-13T16:51:47.892Z,12.60
2018-12-13T16:54:14.453Z,11.67
2018-12-13T16:56:40.918Z,11.90
2018-12-13T16:59:08.367Z,13.20
2018-12-13T17:01:35.098Z,11.73
2018-12-13T17:04:01.594Z,12.33
2018-12-13T17:06:28.180Z,12.07
2018-12-13T17:08:54.912Z,13.17
2018-12-13T17:11:21.667Z,11.23
2018-12-13T17:13:48.154Z,11.63
2018-12-13T17:16:14.635Z,12.93
2018-12-13T17:18:41.119Z,12.50
2018-12-13T17:21:07.630Z,13.70
2018-12-13T17:23:34.231Z,12.87
2018-12-13T17:26:00.830Z,11.83
2018-12-13T17:28:27.446Z,11.50
2018-12-13T17:30:54.146Z,11.93
2018-12-13T17:33:20.735Z,13.33
2018-12-13T17:35:47.100Z,12.13
2018-12-13T17:38:13.825Z,13.47
2018-12-13T17:40:40.236Z,13.40
2018-12-13T17:43:06.842Z,13.00
2018-12-13T17:45:33.452Z,13.53
2018-12-13T17:48:00.042Z,12.50
2018-12-13T17:50:26.554Z,12.33
2018-12-13T17:52:53.162Z,13.47
2018-12-13T17:55:19.889Z,12.57
2018-12-13T17:57:46.396Z,12.07
2018-12-13T18:00:13.091Z,11.10
2018-12-13T18:02:39.598Z,11.57
2018-12-13T18:05:06.339Z,12.30
2018-12-13T18:07:33.050Z,11.83
2018-12-13T18:09:59.658Z,11.87
2018-12-13T18:12:26.121Z,12.00
2018-12-13T18:14:52.642Z,11.67
2018-12-13T18:17:21.961Z,13.63
2018-12-13T18:19:48.474Z,12.80
2018-12-13T18:22:15.077Z,12.33
2018-12-13T18:24:41.426Z,13.33
2018-12-13T18:27:07.939Z,12.13
2018-12-13T18:29:34.438Z,12.43
2018-12-13T18:32:04.153Z,12.17
2018-12-13T18:34:30.663Z,12.53
2018-12-13T18:36:57.149Z,13.00
2018-12-13T18:39:23.750Z,12.43
2018-12-13T18:41:50.364Z,13.47
2018-12-13T18:44:17.065Z,12.30
2018-12-13T18:46:43.683Z,13.77
2018-12-13T18:49:10.167Z,12.70
2018-12-13T18:51:36.772Z,13.33
2018-12-13T18:54:03.687Z,11.70
2018-12-13T18:56:30.379Z,13.20
2018-12-13T18:58:57.005Z,13.20
2018-12-13T19:01:23.508Z,12.77
2018-12-13T19:03:50.052Z,13.37
2018-12-13T19:06:16.535Z,12.17
2018-12-13T19:08:43.024Z,13.53
2018-12-13T19:11:09.927Z,12.47
2018-12-13T19:13:36.602Z,12.90
2018-12-13T19:16:03.142Z,11.77
2018-12-13T19:18:29.777Z,14.40
2018-12-13T19:20:56.146Z,13.43
2018-12-13T19:23:22.630Z,13.33
2018-12-13T19:25:49.235Z,12.33
2018-12-13T19:28:15.842Z,12.13
2018-12-13T19:30:42.549Z,13.30
2018-12-13T19:33:08.958Z,13.40
2018-12-13T19:35:35.534Z,12.50
2018-12-13T19:38:02.019Z,13.03
2018-12-13T19:40:28.620Z,13.67
2018-12-13T19:42:55.213Z,12.60
2018-12-13T19:45:21.932Z,12.87
2018-12-13T19:47:48.306Z,12.93
2018-12-13T19:50:15.047Z,13.17
2018-12-13T19:52:41.510Z,12.97
2018-12-13T19:55:08.054Z,13.80
2018-12-13T19:57:34.660Z,13.37
2018-12-13T20:00:01.149Z,12.50
2018-12-13T20:02:27.879Z,13.77
2018-12-13T20:04:54.368Z,13.00
2018-12-13T20:07:20.954Z,12.83
2018-12-13T20:09:47.451Z,12.93
2018-12-13T20:12:14.151Z,12.90
2018-12-13T20:14:40.862Z,12.90
2018-12-13T20:17:07.466Z,13.70
2018-12-13T20:19:34.081Z,13.37
2018-12-13T20:22:00.495Z,14.37
2018-12-13T20:24:26.868Z,13.77
2018-12-13T20:26:53.454Z,13.83
2018-12-13T20:29:20.170Z,13.77
2018-12-13T20:31:46.968Z,13.90
2018-12-13T20:34:13.338Z,13.23
2018-12-13T20:36:39.957Z,13.30
2018-12-13T20:39:08.008Z,13.53
2018-12-13T20:41:35.279Z,12.00
2018-12-13T20:44:01.865Z,13.03
2018-12-13T20:46:28.363Z,13.47
2018-12-13T20:48:55.083Z,13.17
2018-12-13T20:51:21.728Z,12.67
2018-12-13T20:53:48.325Z,13.83
2018-12-13T20:56:14.931Z,13.03
2018-12-13T20:58:41.475Z,12.43
2018-12-13T21:01:07.971Z,12.50
2018-12-13T21:03:34.455Z,14.87
2018-12-13T21:06:01.058Z,12.70
2018-12-13T21:08:27.823Z,11.40
2018-12-13T21:10:54.191Z,12.17
2018-12-13T21:13:20.715Z,12.27
2018-12-13T21:15:47.435Z,11.70
2018-12-13T21:18:14.135Z,11.83
2018-12-13T21:20:40.727Z,11.73
2018-12-13T21:23:07.442Z,10.77
2018-12-13T21:25:33.954Z,12.03
2018-12-13T21:28:00.460Z,12.50
2018-12-13T21:30:26.921Z,12.83
2018-12-13T21:32:53.394Z,12.00
2018-12-13T21:35:19.986Z,12.27
2018-12-13T21:37:46.363Z,11.93
2018-12-13T21:40:13.071Z,12.27
2018-12-13T21:42:39.663Z,13.00
2018-12-13T21:45:06.371Z,11.50
2018-12-13T21:47:32.874Z,11.57
2018-12-13T21:49:59.235Z,12.80
2018-12-13T21:52:25.858Z,12.43
2018-12-13T21:54:52.447Z,12.93
2018-12-13T21:57:20.467Z,12.60
2018-12-13T21:59:47.051Z,12.10
2018-12-13T22:02:13.539Z,12.83
2018-12-13T22:04:40.120Z,12.90
2018-12-13T22:07:06.822Z,13.73
2018-12-13T22:09:33.411Z,13.47
2018-12-13T22:11:59.919Z,12.60
2018-12-13T22:14:26.403Z,13.10
2018-12-13T22:16:52.991Z,14.27
2018-12-13T22:19:19.591Z,11.97
2018-12-13T22:21:46.046Z,13.33
2018-12-13T22:24:12.543Z,12.23
2018-12-13T22:26:38.861Z,13.13
2018-12-13T22:29:05.354Z,12.87
2018-12-13T22:31:31.847Z,12.13
2018-12-13T22:33:58.447Z,12.63
2018-12-13T22:36:24.923Z,13.80
2018-12-13T22:38:51.589Z,13.10
2018-12-13T22:41:18.119Z,13.20
2018-12-13T22:43:44.618Z,11.80
2018-12-13T22:46:11.331Z,12.43
2018-12-13T22:48:37.941Z,11.77
2018-12-13T22:51:04.558Z,12.60
2018-12-13T22:53:31.303Z,13.10
2018-12-13T22:55:57.767Z,13.10
2018-12-13T22:58:24.398Z,13.00
2018-12-13T23:00:51.094Z,13.37
2018-12-13T23:03:17.693Z,13.10
2018-12-13T23:05:44.394Z,13.30
2018-12-13T23:08:10.763Z,11.53
2018-12-13T23:10:37.455Z,13.50
2018-12-13T23:13:03.979Z,13.77
2018-12-13T23:15:30.578Z,13.57
2018-12-13T23:17:57.170Z,14.27
2018-12-13T23:20:23.771Z,13.53
2018-12-13T23:22:50.272Z,12.90
2018-12-13T23:25:17.034Z,12.77
2018-12-13T23:27:43.507Z,13.10
2018-12-13T23:30:10.210Z,13.27
2018-12-13T23:32:36.756Z,11.87
2018-12-13T23:35:03.962Z,13.73
2018-12-13T23:37:30.541Z,12.50
2018-12-13T23:39:57.087Z,12.50
2018-12-13T23:42:23.719Z,13.30
2018-12-13T23:44:50.345Z,13.80
2018-12-13T23:47:17.258Z,12.47
2018-12-13T23:49:43.681Z,12.13
2018-12-13T23:52:10.178Z,12.03
2018-12-13T23:54:36.681Z,12.30
2018-12-13T23:57:03.146Z,12.70
2018-12-13T23:59:29.643Z,13.10
